createdAt,value
2019-05-14T00:01:51.389Z,15.31
2019-05-14T00:04:57.082Z,15.36
2019-05-14T00:08:02.766Z,15.18
2019-05-14T00:11:08.518Z,15.38
2019-05-14T00:14:14.200Z,15.45
2019-05-14T00:17:22.761Z,15.27
2019-05-14T00:20:28.475Z,15.16
2019-05-14T00:23:34.150Z,15.00
2019-05-14T00:26:42.367Z,15.29
2019-05-14T00:29:47.514Z,15.12
2019-05-14T00:32:53.209Z,14.74
2019-05-14T00:35:58.892Z,14.95
2019-05-14T00:39:05.470Z,15.12
2019-05-14T00:42:12.593Z,15.27
2019-05-14T00:45:18.954Z,15.07
2019-05-14T00:48:24.681Z,14.95
2019-05-14T00:51:31.823Z,15.13
2019-05-14T00:54:37.557Z,14.72
2019-05-14T00:57:43.374Z,14.90
2019-05-14T01:00:49.092Z,14.96
2019-05-14T01:03:55.869Z,15.07
2019-05-14T01:07:01.761Z,14.97
2019-05-14T01:10:08.031Z,14.73
2019-05-14T01:13:14.092Z,15.16
2019-05-14T01:16:22.223Z,15.21
2019-05-14T01:19:27.348Z,14.77
2019-05-14T01:22:33.053Z,14.77
2019-05-14T01:25:38.836Z,15.04
2019-05-14T01:28:44.630Z,15.05
2019-05-14T01:31:52.042Z,15.00
2019-05-14T01:35:01.308Z,15.02
2019-05-14T01:38:06.356Z,14.92
2019-05-14T01:41:12.101Z,15.05
2019-05-14T01:44:17.837Z,14.76
2019-05-14T01:47:23.741Z,14.83
2019-05-14T01:50:29.495Z,14.70
2019-05-14T01:53:35.203Z,14.66
2019-05-14T01:56:42.396Z,14.54
2019-05-14T01:59:48.151Z,14.97
2019-05-14T02:02:53.898Z,14.84
2019-05-14T02:06:01.383Z,14.90
2019-05-14T02:09:07.872Z,14.78
2019-05-14T02:12:13.678Z,14.93
2019-05-14T02:15:21.408Z,15.10
2019-05-14T02:18:27.098Z,15.19
2019-05-14T02:21:32.893Z,15.48
2019-05-14T02:24:38.594Z,15.45
2019-05-14T02:27:44.359Z,15.30
2019-05-14T02:30:57.682Z,15.26
2019-05-14T02:33:59.200Z,15.15
2019-05-14T02:37:04.991Z,15.21
2019-05-14T02:40:10.997Z,14.79
2019-05-14T02:43:19.617Z,14.49
2019-05-14T02:46:24.119Z,14.77
2019-05-14T02:49:30.248Z,14.97
2019-05-14T02:52:36.127Z,14.92
2019-05-14T02:55:41.860Z,15.03
2019-05-14T02:58:49.886Z,15.13
2019-05-14T03:01:54.973Z,15.08
2019-05-14T03:05:00.866Z,14.78
2019-05-14T03:08:09.009Z,14.83
2019-05-14T03:11:14.674Z,14.99
2019-05-14T03:14:20.412Z,15.02
2019-05-14T03:17:26.196Z,15.26
2019-05-14T03:20:31.990Z,15.26
2019-05-14T03:23:39.271Z,14.53
2019-05-14T03:26:45.252Z,14.53
2019-05-14T03:29:51.191Z,14.61
2019-05-14T03:33:01.997Z,14.59
2019-05-14T03:36:09.195Z,14.72
2019-05-14T03:39:12.223Z,14.80
2019-05-14T03:42:19.229Z,14.70
2019-05-14T03:45:25.332Z,14.62
2019-05-14T03:48:31.247Z,14.98
2019-05-14T03:51:39.343Z,14.90
2019-05-14T03:54:44.711Z,14.97
2019-05-14T03:57:50.479Z,14.98
2019-05-14T04:01:02.770Z,15.11
2019-05-14T04:04:10.175Z,14.89
2019-05-14T04:07:19.548Z,14.98
2019-05-14T04:10:24.618Z,15.24
2019-05-14T04:13:32.294Z,15.33
2019-05-14T04:16:40.026Z,15.22
2019-05-14T04:19:51.374Z,15.12
2019-05-14T04:23:00.219Z,14.98
2019-05-14T04:26:09.368Z,15.32
2019-05-14T04:29:19.636Z,15.48
2019-05-14T04:32:24.107Z,15.36
2019-05-14T04:35:30.198Z,15.66
2019-05-14T04:38:35.935Z,15.52
2019-05-14T04:41:41.639Z,15.33
2019-05-14T04:44:50.205Z,15.52
2019-05-14T04:47:54.942Z,15.73
2019-05-14T04:51:00.827Z,15.77
2019-05-14T04:54:09.442Z,15.45
2019-05-14T04:57:13.948Z,15.53
2019-05-14T05:00:20.056Z,15.71
2019-05-14T05:03:25.776Z,16.00
2019-05-14T05:06:31.504Z,16.17
2019-05-14T05:09:39.818Z,16.46
2019-05-14T05:12:44.676Z,16.17
2019-05-14T05:15:50.404Z,16.32
2019-05-14T05:18:59.182Z,16.32
2019-05-14T05:22:03.540Z,16.33
2019-05-14T05:25:09.576Z,16.33
2019-05-14T05:28:15.307Z,16.17
2019-05-14T05:31:21.011Z,16.17
2019-05-14T05:34:28.300Z,16.37
2019-05-14T05:37:34.321Z,16.52
2019-05-14T05:40:40.020Z,16.36
2019-05-14T05:43:48.373Z,16.24
2019-05-14T05:46:55.729Z,16.24
2019-05-14T05:50:01.588Z,16.35
2019-05-14T05:53:09.056Z,16.04
2019-05-14T05:56:52.601Z,16.03
2019-05-14T06:01:19.670Z,16.16
2019-05-14T06:04:58.764Z,16.16
2019-05-14T06:08:15.355Z,16.10
2019-05-14T06:11:22.348Z,16.08
2019-05-14T06:14:29.165Z,15.91
2019-05-14T06:17:35.126Z,15.84
2019-05-14T06:20:42.891Z,15.73
2019-05-14T06:23:49.290Z,15.63
2019-05-14T06:26:55.129Z,15.66
2019-05-14T06:30:00.923Z,15.64
2019-05-14T06:33:09.775Z,15.51
2019-05-14T06:36:15.594Z,15.47
2019-05-14T06:39:21.439Z,15.47
2019-05-14T06:42:28.514Z,15.52
2019-05-14T06:45:34.358Z,15.40
2019-05-14T06:48:40.065Z,15.49
2019-05-14T06:51:48.710Z,15.49
2019-05-14T06:54:53.343Z,15.40
2019-05-14T06:57:59.174Z,15.49
2019-05-14T07:01:04.937Z,15.51
2019-05-14T07:04:10.632Z,15.73
2019-05-14T07:07:16.571Z,15.48
2019-05-14T07:10:22.335Z,15.63
2019-05-14T07:13:29.235Z,15.50
2019-05-14T07:16:35.266Z,15.58
2019-05-14T07:19:40.972Z,15.53
2019-05-14T07:22:48.385Z,15.53
2019-05-14T07:25:54.347Z,15.55
2019-05-14T07:29:00.182Z,15.61
2019-05-14T07:32:08.755Z,15.74
2019-05-14T07:35:13.426Z,15.27
2019-05-14T07:38:19.616Z,15.51
2019-05-14T07:41:28.287Z,15.48
2019-05-14T07:44:32.945Z,15.02
2019-05-14T07:47:39.037Z,15.02
2019-05-14T07:50:48.258Z,15.10
2019-05-14T07:53:52.572Z,15.59
2019-05-14T07:56:59.092Z,15.59
2019-05-14T08:00:05.598Z,15.56
2019-05-14T08:03:11.354Z,15.52
2019-05-14T08:06:18.898Z,15.02
2019-05-14T08:09:25.277Z,15.41
2019-05-14T08:12:31.011Z,15.14
2019-05-14T08:15:38.707Z,15.03
2019-05-14T08:18:44.319Z,14.97
2019-05-14T08:21:53.234Z,15.26
2019-05-14T08:24:59.111Z,15.42
2019-05-14T08:28:04.887Z,15.73
2019-05-14T08:31:10.685Z,15.73
2019-05-14T08:34:19.006Z,15.94
2019-05-14T08:37:23.974Z,15.85
2019-05-14T08:40:35.159Z,16.02
2019-05-14T08:43:41.072Z,15.76
2019-05-14T08:46:48.664Z,15.84
2019-05-14T08:49:54.181Z,15.45
2019-05-14T08:52:59.912Z,15.35
2019-05-14T08:56:08.143Z,15.15
2019-05-14T08:59:13.198Z,15.36
2019-05-14T09:02:19.734Z,15.61
2019-05-14T09:05:25.539Z,15.57
2019-05-14T09:08:31.324Z,15.97
2019-05-14T09:11:45.144Z,15.70
2019-05-14T09:14:48.321Z,15.70
2019-05-14T09:17:54.332Z,15.97
2019-05-14T09:21:00.057Z,15.74
2019-05-14T09:24:09.394Z,15.76
2019-05-14T09:27:14.496Z,16.02
2019-05-14T09:30:20.472Z,16.05
2019-05-14T09:33:26.258Z,15.97
2019-05-14T09:36:31.932Z,16.00
2019-05-14T09:39:38.555Z,15.93
2019-05-14T09:42:44.609Z,15.97
2019-05-14T09:45:50.318Z,16.16
2019-05-14T09:48:56.027Z,16.98
2019-05-14T09:52:01.796Z,16.98
2019-05-14T09:55:09.383Z,17.67
2019-05-14T09:58:15.426Z,16.95
2019-05-14T10:01:21.322Z,16.85
2019-05-14T10:04:27.166Z,16.81
2019-05-14T10:07:32.891Z,17.24
2019-05-14T10:10:39.910Z,17.57
2019-05-14T10:13:48.186Z,18.08
2019-05-14T10:16:53.374Z,17.69
2019-05-14T10:19:59.625Z,17.90
2019-05-14T10:23:05.824Z,18.23
2019-05-14T10:26:11.502Z,18.28
2019-05-14T10:29:19.144Z,18.93
2019-05-14T10:32:24.714Z,18.67
2019-05-14T10:35:30.412Z,18.83
2019-05-14T10:38:38.553Z,18.99
2019-05-14T10:41:44.592Z,19.09
2019-05-14T10:44:50.674Z,19.02
2019-05-14T10:47:58.609Z,19.35
2019-05-14T10:51:05.367Z,20.22
2019-05-14T10:54:22.503Z,19.97
2019-05-14T10:57:18.753Z,20.27
2019-05-14T11:00:24.968Z,19.52
2019-05-14T11:03:32.309Z,19.90
2019-05-14T11:06:38.792Z,20.40
2019-05-14T11:09:44.666Z,19.71
2019-05-14T11:12:54.829Z,19.53
2019-05-14T11:15:59.953Z,19.94
2019-05-14T11:19:09.038Z,19.80
2019-05-14T11:22:14.966Z,19.84
2019-05-14T11:25:20.943Z,20.16
2019-05-14T11:28:28.562Z,19.75
2019-05-14T11:31:34.450Z,19.42
2019-05-14T11:34:40.372Z,19.46
2019-05-14T11:37:48.149Z,19.25
2019-05-14T11:40:54.164Z,19.14
2019-05-14T11:43:59.982Z,19.11
2019-05-14T11:47:05.755Z,18.95
2019-05-14T11:50:12.036Z,18.85
2019-05-14T11:53:20.115Z,18.89
2019-05-14T11:56:25.175Z,18.25
2019-05-14T11:59:31.667Z,18.33
2019-05-14T12:02:44.121Z,18.27
2019-05-14T12:05:52.922Z,18.38
2019-05-14T12:08:58.732Z,18.43
2019-05-14T12:12:04.776Z,18.34
2019-05-14T12:15:10.903Z,18.59
2019-05-14T12:18:18.550Z,18.70
2019-05-14T12:21:24.998Z,18.70
2019-05-14T12:24:30.844Z,19.12
2019-05-14T12:27:38.751Z,18.72
2019-05-14T12:30:45.126Z,18.80
2019-05-14T12:33:50.919Z,18.87
2019-05-14T12:36:58.212Z,18.72
2019-05-14T12:40:04.382Z,18.68
2019-05-14T12:43:10.104Z,18.65
2019-05-14T12:46:15.981Z,18.67
2019-05-14T12:49:21.733Z,18.68
2019-05-14T12:52:29.637Z,18.50
2019-05-14T12:55:34.910Z,18.42
2019-05-14T12:58:45.438Z,18.35
2019-05-14T13:01:49.284Z,18.46
2019-05-14T13:04:55.173Z,18.33
2019-05-14T13:08:00.900Z,18.34
2019-05-14T13:11:09.322Z,18.54
2019-05-14T13:14:14.224Z,18.72
2019-05-14T13:17:19.962Z,18.62
2019-05-14T13:20:29.101Z,18.89
2019-05-14T13:23:35.079Z,18.89
2019-05-14T13:26:40.755Z,18.80
2019-05-14T13:56:04.093Z,19.26
2019-05-14T13:59:10.006Z,19.14
2019-05-14T14:02:18.688Z,19.09
2019-05-14T14:05:23.266Z,19.12
2019-05-14T14:08:29.388Z,19.25
2019-05-14T14:11:35.442Z,18.90
2019-05-14T14:14:41.523Z,19.17
2019-05-14T14:17:49.415Z,19.22
2019-05-14T14:20:54.675Z,19.04
2019-05-14T14:24:00.359Z,19.28
2019-05-14T14:27:08.925Z,19.57
2019-05-14T14:30:14.723Z,19.82
2019-05-14T14:33:20.541Z,19.65
2019-05-14T14:36:29.857Z,19.52
2019-05-14T14:39:33.781Z,19.77
2019-05-14T14:42:40.453Z,19.61
2019-05-14T14:45:50.570Z,19.57
2019-05-14T14:48:57.832Z,19.42
2019-05-14T14:52:01.520Z,19.51
2019-05-14T14:55:08.037Z,19.49
2019-05-14T14:58:15.815Z,19.40
2019-05-14T15:01:21.282Z,19.39
2019-05-14T15:04:27.996Z,19.49
2019-05-14T15:07:33.773Z,19.49
2019-05-14T15:10:39.717Z,19.32
2019-05-14T15:13:45.509Z,19.36
2019-05-14T15:16:51.222Z,19.34
2019-05-14T15:19:59.545Z,19.31
2019-05-14T15:23:04.580Z,19.24
2019-05-14T15:26:12.291Z,19.18
2019-05-14T15:29:18.731Z,19.14
2019-05-14T15:32:24.719Z,19.16
2019-05-14T15:35:30.530Z,19.24
2019-05-14T15:38:39.707Z,18.94
2019-05-14T15:41:49.884Z,19.00
2019-05-14T15:44:56.991Z,18.85
2019-05-14T15:48:04.268Z,18.89
2019-05-14T15:51:14.267Z,19.00
2019-05-14T15:54:36.121Z,19.08
2019-05-14T15:57:29.518Z,18.91
2019-05-14T16:00:38.496Z,19.07
2019-05-14T16:03:44.530Z,19.08
2019-05-14T16:06:55.138Z,19.07
2019-05-14T16:10:01.057Z,19.14
2019-05-14T16:13:08.750Z,18.95
2019-05-14T16:16:14.857Z,19.06
2019-05-14T16:19:21.885Z,19.14
2019-05-14T16:22:29.378Z,18.97
2019-05-14T16:25:35.392Z,19.08
2019-05-14T16:28:42.456Z,19.04
2019-05-14T16:31:48.787Z,19.14
2019-05-14T16:34:54.779Z,18.95
2019-05-14T16:38:01.763Z,18.75
2019-05-14T16:41:07.720Z,18.71
2019-05-14T16:44:13.424Z,18.67
2019-05-14T16:47:19.246Z,18.50
2019-05-14T16:50:25.033Z,18.46
2019-05-14T16:53:30.785Z,18.66
2019-05-14T16:56:41.125Z,18.62
2019-05-14T16:59:44.552Z,18.55
2019-05-14T17:02:50.253Z,18.43
2019-05-14T17:05:58.055Z,18.42
2019-05-14T17:09:03.886Z,18.32
2019-05-14T17:12:09.966Z,18.32
2019-05-14T17:15:18.044Z,18.14
2019-05-14T17:18:23.344Z,18.16
2019-05-14T17:21:29.847Z,18.28
2019-05-14T17:24:35.739Z,18.11
2019-05-14T17:27:42.981Z,18.09
2019-05-14T17:30:49.236Z,18.01
2019-05-14T17:33:55.040Z,18.02
2019-05-14T17:37:01.401Z,17.98
2019-05-14T17:40:09.419Z,17.98
2019-05-14T17:43:14.988Z,17.91
2019-05-14T17:46:20.930Z,17.92
2019-05-14T17:49:28.339Z,18.03
2019-05-14T17:52:34.238Z,17.91
2019-05-14T17:55:47.106Z,17.92
2019-05-14T17:58:49.162Z,17.86
2019-05-14T18:01:54.867Z,17.79
2019-05-14T18:05:00.596Z,17.72
2019-05-14T18:08:09.302Z,17.88
2019-05-14T18:11:15.126Z,17.82
2019-05-14T18:14:20.782Z,17.81
2019-05-14T18:17:29.447Z,17.71
2019-05-14T18:20:33.992Z,17.67
2019-05-14T18:23:42.047Z,17.64
2019-05-14T18:26:48.124Z,17.70
2019-05-14T18:29:53.891Z,17.64
2019-05-14T18:32:59.814Z,17.76
2019-05-14T18:36:07.940Z,17.43
2019-05-14T18:39:13.648Z,17.46
2019-05-14T18:42:19.539Z,17.33
2019-05-14T18:45:25.363Z,17.37
2019-05-14T18:48:31.235Z,17.47
2019-05-14T18:51:36.952Z,17.41
2019-05-14T18:54:42.720Z,17.49
2019-05-14T18:57:48.748Z,17.38
2019-05-14T19:00:54.688Z,17.22
2019-05-14T19:04:00.451Z,17.20
2019-05-14T19:07:06.252Z,17.24
2019-05-14T19:10:12.253Z,17.33
2019-05-14T19:13:18.740Z,17.11
2019-05-14T19:16:24.779Z,17.28
2019-05-14T19:19:30.535Z,16.99
2019-05-14T19:22:39.465Z,17.09
2019-05-14T19:25:43.689Z,17.06
2019-05-14T19:28:49.415Z,17.12
2019-05-14T19:31:55.202Z,17.11
2019-05-14T19:35:00.918Z,17.09
2019-05-14T19:38:08.877Z,17.16
2019-05-14T19:41:21.029Z,17.14
2019-05-14T19:44:24.784Z,17.27
2019-05-14T19:47:30.563Z,17.17
2019-05-14T19:50:48.878Z,16.89
2019-05-14T19:53:55.307Z,16.96
2019-05-14T19:57:06.161Z,16.89
2019-05-14T20:00:12.537Z,16.85
2019-05-14T20:03:18.723Z,16.81
2019-05-14T20:06:33.920Z,16.77
2019-05-14T20:09:39.923Z,16.85
2019-05-14T20:12:49.611Z,16.68
2019-05-14T20:15:58.919Z,16.82
2019-05-14T20:19:04.315Z,16.61
2019-05-14T20:22:10.066Z,16.81
2019-05-14T20:25:16.238Z,16.86
2019-05-14T20:28:22.227Z,16.97
2019-05-14T20:31:29.663Z,17.07
2019-05-14T20:34:35.564Z,16.73
2019-05-14T20:37:41.277Z,16.58
2019-05-14T20:40:48.748Z,16.53
2019-05-14T20:43:56.086Z,16.55
2019-05-14T20:47:04.457Z,16.56
2019-05-14T20:50:13.867Z,16.57
2019-05-14T20:53:19.595Z,16.77
2019-05-14T20:56:25.282Z,16.77
2019-05-14T20:59:31.000Z,16.82
2019-05-14T21:02:39.431Z,16.70
2019-05-14T21:05:44.304Z,16.80
2019-05-14T21:08:50.092Z,16.77
2019-05-14T21:11:55.840Z,16.73
2019-05-14T21:15:01.550Z,16.28
2019-05-14T21:18:08.376Z,16.51
2019-05-14T21:21:14.331Z,16.46
2019-05-14T21:24:21.780Z,16.51
2019-05-14T21:27:41.174Z,16.47
2019-05-14T21:30:35.441Z,16.46
2019-05-14T21:33:41.490Z,16.44
2019-05-14T21:36:49.641Z,16.28
2019-05-14T21:39:55.325Z,16.26
2019-05-14T21:43:01.185Z,16.06
2019-05-14T21:46:08.149Z,16.26
2019-05-14T21:49:15.037Z,16.07
2019-05-14T21:52:20.782Z,16.18
2019-05-14T21:55:28.925Z,16.44
2019-05-14T21:58:38.694Z,16.51
2019-05-14T22:01:45.455Z,16.38
2019-05-14T22:04:51.280Z,16.23
2019-05-14T22:07:57.983Z,16.14
2019-05-14T22:11:04.916Z,16.30
2019-05-14T22:14:10.608Z,16.37
2019-05-14T22:17:16.319Z,16.33
2019-05-14T22:20:22.117Z,16.33
2019-05-14T22:23:29.176Z,16.25
2019-05-14T22:26:35.168Z,15.90
2019-05-14T22:29:41.233Z,16.33
2019-05-14T22:32:49.668Z,16.30
2019-05-14T22:36:00.957Z,16.44
2019-05-14T22:39:19.787Z,16.42
2019-05-14T22:43:25.322Z,16.72
2019-05-14T22:46:24.738Z,16.68
2019-05-14T22:49:30.662Z,16.52
2019-05-14T22:52:38.589Z,16.18
2019-05-14T22:55:43.809Z,16.64
2019-05-14T22:58:49.513Z,16.71
2019-05-14T23:01:55.226Z,16.53
2019-05-14T23:05:01.070Z,16.50
2019-05-14T23:08:08.972Z,16.62
2019-05-14T23:11:14.906Z,16.46
2019-05-14T23:14:20.630Z,16.49
2019-05-14T23:17:28.031Z,16.63
2019-05-14T23:20:34.822Z,16.52
2019-05-14T23:28:24.297Z,16.79
2019-05-14T23:31:29.996Z,16.73
2019-05-14T23:34:37.860Z,16.77
2019-05-14T23:37:43.817Z,16.84
2019-05-14T23:40:49.567Z,16.80
2019-05-14T23:43:55.309Z,16.91
2019-05-14T23:47:01.007Z,16.93
2019-05-14T23:50:08.170Z,16.85
2019-05-14T23:53:14.100Z,16.62
2019-05-14T23:56:19.873Z,16.71
2019-05-14T23:59:25.895Z,16.49
